sensor_id;sensor_type;location;lat;lon;timestamp;P1;durP1;ratioP1;P2;durP2;ratioP2
54452;SDS011;40363;52.270;10.546;2023-11-19T00:01:08;1.45;;;0.98;;
54452;SDS011;40363;52.270;10.546;2023-11-19T00:03:40;1.20;;;0.77;;
54452;SDS011;40363;52.270;10.546;2023-11-19T00:06:06;2.00;;;0.82;;
54452;SDS011;40363;52.270;10.546;2023-11-19T00:08:36;3.13;;;1.20;;
54452;SDS011;40363;52.270;10.546;2023-11-19T00:11:03;1.45;;;0.93;;
54452;SDS011;40363;52.270;10.546;2023-11-19T00:13:30;0.75;;;0.55;;
54452;SDS011;40363;52.270;10.546;2023-11-19T00:15:57;0.82;;;0.68;;
54452;SDS011;40363;52.270;10.546;2023-11-19T00:18:23;0.93;;;0.70;;
54452;SDS011;40363;52.270;10.546;2023-11-19T00:20:50;1.35;;;0.90;;
54452;SDS011;40363;52.270;10.546;2023-11-19T00:23:16;0.95;;;0.80;;
54452;SDS011;40363;52.270;10.546;2023-11-19T00:25:44;2.17;;;0.82;;
54452;SDS011;40363;52.270;10.546;2023-11-19T00:28:13;1.85;;;1.00;;
54452;SDS011;40363;52.270;10.546;2023-11-19T00:30:39;1.35;;;0.80;;
54452;SDS011;40363;52.270;10.546;2023-11-19T00:33:06;1.88;;;0.57;;
54452;SDS011;40363;52.270;10.546;2023-11-19T00:35:33;2.58;;;1.00;;
54452;SDS011;40363;52.270;10.546;2023-11-19T00:38:00;1.60;;;0.77;;
54452;SDS011;40363;52.270;10.546;2023-11-19T00:40:28;1.48;;;0.60;;
54452;SDS011;40363;52.270;10.546;2023-11-19T00:42:58;1.42;;;0.80;;
54452;SDS011;40363;52.270;10.546;2023-11-19T00:45:25;0.40;;;0.38;;
54452;SDS011;40363;52.270;10.546;2023-11-19T00:47:54;1.38;;;0.70;;
54452;SDS011;40363;52.270;10.546;2023-11-19T00:50:21;0.60;;;0.50;;
54452;SDS011;40363;52.270;10.546;2023-11-19T00:52:48;1.48;;;0.80;;
54452;SDS011;40363;52.270;10.546;2023-11-19T00:55:14;1.20;;;0.93;;
54452;SDS011;40363;52.270;10.546;2023-11-19T00:57:41;2.90;;;0.80;;
54452;SDS011;40363;52.270;10.546;2023-11-19T01:00:10;1.35;;;0.50;;
54452;SDS011;40363;52.270;10.546;2023-11-19T01:02:43;1.17;;;0.50;;
54452;SDS011;40363;52.270;10.546;2023-11-19T01:05:10;0.77;;;0.60;;
54452;SDS011;40363;52.270;10.546;2023-11-19T01:07:39;0.30;;;0.30;;
54452;SDS011;40363;52.270;10.546;2023-11-19T01:10:06;0.80;;;0.50;;
54452;SDS011;40363;52.270;10.546;2023-11-19T01:12:33;0.40;;;0.35;;
54452;SDS011;40363;52.270;10.546;2023-11-19T01:15:00;0.40;;;0.40;;
54452;SDS011;40363;52.270;10.546;2023-11-19T01:17:28;0.47;;;0.28;;
54452;SDS011;40363;52.270;10.546;2023-11-19T01:19:56;0.55;;;0.30;;
54452;SDS011;40363;52.270;10.546;2023-11-19T01:22:23;1.10;;;0.50;;
54452;SDS011;40363;52.270;10.546;2023-11-19T01:24:50;0.30;;;0.30;;
54452;SDS011;40363;52.270;10.546;2023-11-19T01:27:19;0.30;;;0.30;;
54452;SDS011;40363;52.270;10.546;2023-11-19T01:29:46;0.43;;;0.40;;
54452;SDS011;40363;52.270;10.546;2023-11-19T01:32:13;0.50;;;0.40;;
54452;SDS011;40363;52.270;10.546;2023-11-19T01:34:40;0.80;;;0.30;;
54452;SDS011;40363;52.270;10.546;2023-11-19T01:37:07;0.68;;;0.47;;
54452;SDS011;40363;52.270;10.546;2023-11-19T01:39:35;0.57;;;0.50;;
54452;SDS011;40363;52.270;10.546;2023-11-19T01:42:05;0.52;;;0.50;;
54452;SDS011;40363;52.270;10.546;2023-11-19T01:44:34;0.65;;;0.50;;
54452;SDS011;40363;52.270;10.546;2023-11-19T01:47:01;0.73;;;0.47;;
54452;SDS011;40363;52.270;10.546;2023-11-19T01:49:29;1.33;;;0.57;;
54452;SDS011;40363;52.270;10.546;2023-11-19T01:51:59;0.93;;;0.65;;
54452;SDS011;40363;52.270;10.546;2023-11-19T01:54:26;0.20;;;0.15;;
54452;SDS011;40363;52.270;10.546;2023-11-19T01:56:54;1.02;;;0.40;;
54452;SDS011;40363;52.270;10.546;2023-11-19T01:59:23;1.27;;;0.47;;
54452;SDS011;40363;52.270;10.546;2023-11-19T02:01:52;1.52;;;0.30;;
54452;SDS011;40363;52.270;10.546;2023-11-19T02:04:20;1.13;;;0.40;;
54452;SDS011;40363;52.270;10.546;2023-11-19T02:06:47;0.85;;;0.70;;
54452;SDS011;40363;52.270;10.546;2023-11-19T02:09:18;2.20;;;0.30;;
54452;SDS011;40363;52.270;10.546;2023-11-19T02:11:46;0.30;;;0.30;;
54452;SDS011;40363;52.270;10.546;2023-11-19T02:14:16;1.92;;;0.43;;
54452;SDS011;40363;52.270;10.546;2023-11-19T02:16:43;0.10;;;0.10;;
54452;SDS011;40363;52.270;10.546;2023-11-19T02:19:09;1.15;;;0.47;;
54452;SDS011;40363;52.270;10.546;2023-11-19T02:21:36;0.45;;;0.30;;
54452;SDS011;40363;52.270;10.546;2023-11-19T02:24:04;0.40;;;0.40;;
54452;SDS011;40363;52.270;10.546;2023-11-19T02:26:36;0.40;;;0.32;;
54452;SDS011;40363;52.270;10.546;2023-11-19T02:31:38;0.55;;;0.45;;
54452;SDS011;40363;52.270;10.546;2023-11-19T02:34:05;1.55;;;0.40;;
54452;SDS011;40363;52.270;10.546;2023-11-19T02:36:32;1.48;;;0.60;;
54452;SDS011;40363;52.270;10.546;2023-11-19T02:38:58;2.90;;;0.80;;
54452;SDS011;40363;52.270;10.546;2023-11-19T02:41:25;2.75;;;0.90;;
54452;SDS011;40363;52.270;10.546;2023-11-19T02:43:51;1.48;;;1.10;;
54452;SDS011;40363;52.270;10.546;2023-11-19T02:46:20;1.73;;;1.00;;
54452;SDS011;40363;52.270;10.546;2023-11-19T02:48:48;2.92;;;1.20;;
54452;SDS011;40363;52.270;10.546;2023-11-19T02:51:15;1.65;;;1.00;;
54452;SDS011;40363;52.270;10.546;2023-11-19T02:53:43;3.05;;;0.95;;
54452;SDS011;40363;52.270;10.546;2023-11-19T02:56:13;1.95;;;0.88;;
54452;SDS011;40363;52.270;10.546;2023-11-19T02:58:50;3.90;;;1.23;;
54452;SDS011;40363;52.270;10.546;2023-11-19T03:01:22;2.10;;;0.98;;
54452;SDS011;40363;52.270;10.546;2023-11-19T03:03:54;3.55;;;1.15;;
54452;SDS011;40363;52.270;10.546;2023-11-19T03:06:22;2.05;;;0.90;;
54452;SDS011;40363;52.270;10.546;2023-11-19T03:08:48;2.55;;;1.08;;
54452;SDS011;40363;52.270;10.546;2023-11-19T03:11:15;2.42;;;1.33;;
54452;SDS011;40363;52.270;10.546;2023-11-19T03:13:41;3.00;;;1.15;;
54452;SDS011;40363;52.270;10.546;2023-11-19T03:16:08;2.95;;;1.40;;
54452;SDS011;40363;52.270;10.546;2023-11-19T03:18:38;2.50;;;0.98;;
54452;SDS011;40363;52.270;10.546;2023-11-19T03:21:05;1.95;;;1.00;;
54452;SDS011;40363;52.270;10.546;2023-11-19T03:23:31;2.25;;;1.00;;
54452;SDS011;40363;52.270;10.546;2023-11-19T03:25:58;2.25;;;0.88;;
54452;SDS011;40363;52.270;10.546;2023-11-19T03:28:28;1.85;;;0.80;;
54452;SDS011;40363;52.270;10.546;2023-11-19T03:30:55;2.78;;;0.95;;
54452;SDS011;40363;52.270;10.546;2023-11-19T03:33:25;0.88;;;0.52;;
54452;SDS011;40363;52.270;10.546;2023-11-19T03:35:54;2.28;;;1.30;;
54452;SDS011;40363;52.270;10.546;2023-11-19T03:38:21;2.10;;;1.17;;
54452;SDS011;40363;52.270;10.546;2023-11-19T03:40:48;4.50;;;1.40;;
54452;SDS011;40363;52.270;10.546;2023-11-19T03:43:15;4.15;;;1.10;;
54452;SDS011;40363;52.270;10.546;2023-11-19T03:45:41;1.45;;;0.70;;
54452;SDS011;40363;52.270;10.546;2023-11-19T03:48:08;1.02;;;0.50;;
54452;SDS011;40363;52.270;10.546;2023-11-19T03:50:35;0.93;;;0.30;;
54452;SDS011;40363;52.270;10.546;2023-11-19T03:53:03;0.70;;;0.30;;
54452;SDS011;40363;52.270;10.546;2023-11-19T03:55:31;0.82;;;0.52;;
54452;SDS011;40363;52.270;10.546;2023-11-19T03:57:58;1.35;;;0.50;;
54452;SDS011;40363;52.270;10.546;2023-11-19T04:00:24;0.90;;;0.60;;
54452;SDS011;40363;52.270;10.546;2023-11-19T04:02:52;1.00;;;0.60;;
54452;SDS011;40363;52.270;10.546;2023-11-19T04:05:19;1.05;;;0.50;;
54452;SDS011;40363;52.270;10.546;2023-11-19T04:07:46;0.70;;;0.45;;
54452;SDS011;40363;52.270;10.546;2023-11-19T04:10:14;1.02;;;0.50;;
54452;SDS011;40363;52.270;10.546;2023-11-19T04:12:42;0.40;;;0.40;;
54452;SDS011;40363;52.270;10.546;2023-11-19T04:15:09;0.50;;;0.40;;
54452;SDS011;40363;52.270;10.546;2023-11-19T04:17:37;2.85;;;0.77;;
54452;SDS011;40363;52.270;10.546;2023-11-19T04:20:04;0.55;;;0.45;;
54452;SDS011;40363;52.270;10.546;2023-11-19T04:22:35;1.17;;;0.30;;
54452;SDS011;40363;52.270;10.546;2023-11-19T04:25:02;0.55;;;0.40;;
54452;SDS011;40363;52.270;10.546;2023-11-19T04:27:31;0.25;;;0.25;;
54452;SDS011;40363;52.270;10.546;2023-11-19T04:29:57;0.50;;;0.50;;
54452;SDS011;40363;52.270;10.546;2023-11-19T04:32:26;1.77;;;0.60;;
54452;SDS011;40363;52.270;10.546;2023-11-19T04:34:54;0.55;;;0.40;;
54452;SDS011;40363;52.270;10.546;2023-11-19T04:37:21;0.55;;;0.35;;
54452;SDS011;40363;52.270;10.546;2023-11-19T04:39:47;0.60;;;0.40;;
54452;SDS011;40363;52.270;10.546;2023-11-19T04:42:14;0.45;;;0.40;;
54452;SDS011;40363;52.270;10.546;2023-11-19T04:44:44;0.30;;;0.30;;
54452;SDS011;40363;52.270;10.546;2023-11-19T04:47:10;0.52;;;0.50;;
54452;SDS011;40363;52.270;10.546;2023-11-19T04:49:39;1.73;;;1.17;;
54452;SDS011;40363;52.270;10.546;2023-11-19T04:52:07;2.63;;;0.77;;
54452;SDS011;40363;52.270;10.546;2023-11-19T04:54:34;0.73;;;0.45;;
54452;SDS011;40363;52.270;10.546;2023-11-19T04:57:01;1.02;;;0.55;;
54452;SDS011;40363;52.270;10.546;2023-11-19T04:59:27;2.28;;;0.95;;
54452;SDS011;40363;52.270;10.546;2023-11-19T05:01:56;1.02;;;0.73;;
54452;SDS011;40363;52.270;10.546;2023-11-19T05:04:23;1.13;;;0.70;;
54452;SDS011;40363;52.270;10.546;2023-11-19T05:06:49;2.70;;;0.93;;
54452;SDS011;40363;52.270;10.546;2023-11-19T05:09:16;2.25;;;1.15;;
54452;SDS011;40363;52.270;10.546;2023-11-19T05:11:43;1.50;;;0.90;;
54452;SDS011;40363;52.270;10.546;2023-11-19T05:14:09;1.08;;;0.85;;
54452;SDS011;40363;52.270;10.546;2023-11-19T05:16:38;1.30;;;0.90;;
54452;SDS011;40363;52.270;10.546;2023-11-19T05:19:07;2.08;;;1.17;;
54452;SDS011;40363;52.270;10.546;2023-11-19T05:21:34;1.23;;;1.10;;
54452;SDS011;40363;52.270;10.546;2023-11-19T05:24:01;1.20;;;1.00;;
54452;SDS011;40363;52.270;10.546;2023-11-19T05:26:29;2.30;;;1.20;;
54452;SDS011;40363;52.270;10.546;2023-11-19T05:28:56;2.05;;;1.25;;
54452;SDS011;40363;52.270;10.546;2023-11-19T05:31:23;1.90;;;0.93;;
54452;SDS011;40363;52.270;10.546;2023-11-19T05:33:49;1.92;;;1.08;;
54452;SDS011;40363;52.270;10.546;2023-11-19T05:36:18;1.83;;;1.10;;
54452;SDS011;40363;52.270;10.546;2023-11-19T05:38:44;2.05;;;0.93;;
54452;SDS011;40363;52.270;10.546;2023-11-19T05:41:11;1.67;;;1.20;;
54452;SDS011;40363;52.270;10.546;2023-11-19T05:43:37;1.73;;;1.20;;
54452;SDS011;40363;52.270;10.546;2023-11-19T05:46:05;1.25;;;0.95;;
54452;SDS011;40363;52.270;10.546;2023-11-19T05:48:32;4.03;;;0.98;;
54452;SDS011;40363;52.270;10.546;2023-11-19T05:50:58;2.75;;;0.82;;
54452;SDS011;40363;52.270;10.546;2023-11-19T05:53:26;1.08;;;0.70;;
54452;SDS011;40363;52.270;10.546;2023-11-19T05:55:53;1.08;;;0.80;;
54452;SDS011;40363;52.270;10.546;2023-11-19T05:58:23;0.98;;;0.68;;
54452;SDS011;40363;52.270;10.546;2023-11-19T06:00:51;3.50;;;0.88;;
54452;SDS011;40363;52.270;10.546;2023-11-19T06:03:18;2.35;;;1.20;;
54452;SDS011;40363;52.270;10.546;2023-11-19T06:05:46;0.80;;;0.70;;
54452;SDS011;40363;52.270;10.546;2023-11-19T06:08:13;1.45;;;0.90;;
54452;SDS011;40363;52.270;10.546;2023-11-19T06:10:42;1.67;;;0.70;;
54452;SDS011;40363;52.270;10.546;2023-11-19T06:13:11;1.45;;;1.30;;
54452;SDS011;40363;52.270;10.546;2023-11-19T06:15:40;1.05;;;0.95;;
54452;SDS011;40363;52.270;10.546;2023-11-19T06:18:06;0.90;;;0.77;;
54452;SDS011;40363;52.270;10.546;2023-11-19T06:20:33;1.15;;;0.70;;
54452;SDS011;40363;52.270;10.546;2023-11-19T06:23:00;0.90;;;0.77;;
54452;SDS011;40363;52.270;10.546;2023-11-19T06:25:27;4.18;;;1.42;;
54452;SDS011;40363;52.270;10.546;2023-11-19T06:27:55;3.25;;;0.80;;
54452;SDS011;40363;52.270;10.546;2023-11-19T06:30:22;0.98;;;0.82;;
54452;SDS011;40363;52.270;10.546;2023-11-19T06:32:48;3.55;;;1.23;;
54452;SDS011;40363;52.270;10.546;2023-11-19T06:35:15;2.55;;;1.13;;
54452;SDS011;40363;52.270;10.546;2023-11-19T06:37:42;1.83;;;1.20;;
54452;SDS011;40363;52.270;10.546;2023-11-19T06:40:09;1.45;;;1.10;;
54452;SDS011;40363;52.270;10.546;2023-11-19T06:42:37;6.88;;;1.50;;
54452;SDS011;40363;52.270;10.546;2023-11-19T06:45:05;4.18;;;1.48;;
54452;SDS011;40363;52.270;10.546;2023-11-19T06:47:32;1.83;;;1.10;;
54452;SDS011;40363;52.270;10.546;2023-11-19T06:49:59;2.03;;;1.17;;
54452;SDS011;40363;52.270;10.546;2023-11-19T06:52:26;4.53;;;1.10;;
54452;SDS011;40363;52.270;10.546;2023-11-19T06:54:52;2.28;;;1.00;;
54452;SDS011;40363;52.270;10.546;2023-11-19T06:57:19;3.00;;;1.38;;
54452;SDS011;40363;52.270;10.546;2023-11-19T06:59:46;4.88;;;1.58;;
54452;SDS011;40363;52.270;10.546;2023-11-19T07:02:14;3.40;;;1.63;;
54452;SDS011;40363;52.270;10.546;2023-11-19T07:04:41;2.67;;;1.25;;
54452;SDS011;40363;52.270;10.546;2023-11-19T07:07:07;9.40;;;2.28;;
54452;SDS011;40363;52.270;10.546;2023-11-19T07:09:34;4.30;;;1.50;;
54452;SDS011;40363;52.270;10.546;2023-11-19T07:12:02;4.15;;;1.30;;
54452;SDS011;40363;52.270;10.546;2023-11-19T07:14:29;3.47;;;1.30;;
54452;SDS011;40363;52.270;10.546;2023-11-19T07:16:56;6.07;;;2.22;;
54452;SDS011;40363;52.270;10.546;2023-11-19T07:19:26;3.55;;;1.75;;
54452;SDS011;40363;52.270;10.546;2023-11-19T07:21:53;2.58;;;1.45;;
54452;SDS011;40363;52.270;10.546;2023-11-19T07:24:21;1.83;;;0.90;;
54452;SDS011;40363;52.270;10.546;2023-11-19T07:26:48;5.20;;;1.83;;
54452;SDS011;40363;52.270;10.546;2023-11-19T07:29:14;3.38;;;1.33;;
54452;SDS011;40363;52.270;10.546;2023-11-19T07:31:41;1.42;;;0.82;;
54452;SDS011;40363;52.270;10.546;2023-11-19T07:34:09;2.05;;;1.40;;
54452;SDS011;40363;52.270;10.546;2023-11-19T07:36:38;4.90;;;2.00;;
54452;SDS011;40363;52.270;10.546;2023-11-19T07:39:04;1.73;;;1.20;;
54452;SDS011;40363;52.270;10.546;2023-11-19T07:41:31;3.20;;;1.20;;
54452;SDS011;40363;52.270;10.546;2023-11-19T07:43:58;3.72;;;1.25;;
54452;SDS011;40363;52.270;10.546;2023-11-19T07:46:24;6.10;;;1.50;;
54452;SDS011;40363;52.270;10.546;2023-11-19T07:48:51;9.30;;;1.65;;
54452;SDS011;40363;52.270;10.546;2023-11-19T07:51:18;1.33;;;1.08;;
54452;SDS011;40363;52.270;10.546;2023-11-19T07:53:46;4.25;;;1.60;;
54452;SDS011;40363;52.270;10.546;2023-11-19T07:56:13;3.67;;;1.40;;
54452;SDS011;40363;52.270;10.546;2023-11-19T07:58:40;6.53;;;1.83;;
54452;SDS011;40363;52.270;10.546;2023-11-19T08:01:06;2.67;;;1.65;;
54452;SDS011;40363;52.270;10.546;2023-11-19T08:03:33;1.85;;;1.48;;
54452;SDS011;40363;52.270;10.546;2023-11-19T08:06:00;6.18;;;1.60;;
54452;SDS011;40363;52.270;10.546;2023-11-19T08:08:27;4.97;;;1.70;;
54452;SDS011;40363;52.270;10.546;2023-11-19T08:10:56;5.60;;;1.92;;
54452;SDS011;40363;52.270;10.546;2023-11-19T08:13:23;5.40;;;2.08;;
54452;SDS011;40363;52.270;10.546;2023-11-19T08:15:50;5.72;;;2.10;;
54452;SDS011;40363;52.270;10.546;2023-11-19T08:18:17;6.50;;;1.75;;
54452;SDS011;40363;52.270;10.546;2023-11-19T08:20:44;6.55;;;1.90;;
54452;SDS011;40363;52.270;10.546;2023-11-19T08:23:14;12.23;;;2.95;;
54452;SDS011;40363;52.270;10.546;2023-11-19T08:25:40;6.53;;;2.50;;
54452;SDS011;40363;52.270;10.546;2023-11-19T08:28:08;9.05;;;2.63;;
54452;SDS011;40363;52.270;10.546;2023-11-19T08:30:35;6.85;;;2.63;;
54452;SDS011;40363;52.270;10.546;2023-11-19T08:33:01;11.43;;;3.40;;
54452;SDS011;40363;52.270;10.546;2023-11-19T08:35:28;4.30;;;2.50;;
54452;SDS011;40363;52.270;10.546;2023-11-19T08:37:55;9.20;;;3.55;;
54452;SDS011;40363;52.270;10.546;2023-11-19T08:40:22;7.57;;;2.05;;
54452;SDS011;40363;52.270;10.546;2023-11-19T08:42:49;12.75;;;2.80;;
54452;SDS011;40363;52.270;10.546;2023-11-19T08:45:17;11.30;;;3.35;;
54452;SDS011;40363;52.270;10.546;2023-11-19T08:47:44;17.05;;;3.33;;
54452;SDS011;40363;52.270;10.546;2023-11-19T08:50:11;19.27;;;3.85;;
54452;SDS011;40363;52.270;10.546;2023-11-19T08:52:38;3.85;;;1.60;;
54452;SDS011;40363;52.270;10.546;2023-11-19T08:55:05;12.98;;;3.35;;
54452;SDS011;40363;52.270;10.546;2023-11-19T08:57:32;13.52;;;3.50;;
54452;SDS011;40363;52.270;10.546;2023-11-19T08:59:59;9.13;;;2.65;;
54452;SDS011;40363;52.270;10.546;2023-11-19T09:02:27;15.70;;;2.97;;
54452;SDS011;40363;52.270;10.546;2023-11-19T09:04:53;14.32;;;2.58;;
54452;SDS011;40363;52.270;10.546;2023-11-19T09:07:20;7.20;;;2.20;;
54452;SDS011;40363;52.270;10.546;2023-11-19T09:09:47;8.43;;;2.65;;
54452;SDS011;40363;52.270;10.546;2023-11-19T09:12:13;10.38;;;2.33;;
54452;SDS011;40363;52.270;10.546;2023-11-19T09:14:40;15.05;;;3.13;;
54452;SDS011;40363;52.270;10.546;2023-11-19T09:17:07;17.25;;;3.33;;
54452;SDS011;40363;52.270;10.546;2023-11-19T09:19:36;9.93;;;2.50;;
54452;SDS011;40363;52.270;10.546;2023-11-19T09:22:02;16.08;;;3.15;;
54452;SDS011;40363;52.270;10.546;2023-11-19T09:24:29;12.90;;;2.63;;
54452;SDS011;40363;52.270;10.546;2023-11-19T09:26:56;8.40;;;2.00;;
54452;SDS011;40363;52.270;10.546;2023-11-19T09:29:23;8.77;;;2.17;;
54452;SDS011;40363;52.270;10.546;2023-11-19T09:31:50;18.92;;;3.53;;
54452;SDS011;40363;52.270;10.546;2023-11-19T09:34:16;10.50;;;2.63;;
54452;SDS011;40363;52.270;10.546;2023-11-19T09:36:45;11.90;;;3.88;;
54452;SDS011;40363;52.270;10.546;2023-11-19T09:39:14;14.23;;;3.28;;
54452;SDS011;40363;52.270;10.546;2023-11-19T09:41:42;9.15;;;3.13;;
54452;SDS011;40363;52.270;10.546;2023-11-19T09:44:10;11.38;;;2.85;;
54452;SDS011;40363;52.270;10.546;2023-11-19T09:46:37;12.40;;;2.97;;
54452;SDS011;40363;52.270;10.546;2023-11-19T09:49:04;8.38;;;2.58;;
54452;SDS011;40363;52.270;10.546;2023-11-19T09:51:34;11.73;;;2.30;;
54452;SDS011;40363;52.270;10.546;2023-11-19T09:54:02;13.82;;;2.80;;
54452;SDS011;40363;52.270;10.546;2023-11-19T09:56:29;8.98;;;2.92;;
54452;SDS011;40363;52.270;10.546;2023-11-19T09:58:56;10.90;;;3.28;;
54452;SDS011;40363;52.270;10.546;2023-11-19T10:01:22;5.40;;;1.80;;
54452;SDS011;40363;52.270;10.546;2023-11-19T10:03:49;9.35;;;2.20;;
54452;SDS011;40363;52.270;10.546;2023-11-19T10:06:17;14.52;;;4.03;;
54452;SDS011;40363;52.270;10.546;2023-11-19T10:08:44;6.95;;;1.92;;
54452;SDS011;40363;52.270;10.546;2023-11-19T10:11:12;6.60;;;2.25;;
54452;SDS011;40363;52.270;10.546;2023-11-19T10:13:40;10.25;;;2.60;;
54452;SDS011;40363;52.270;10.546;2023-11-19T10:16:08;11.93;;;3.50;;
54452;SDS011;40363;52.270;10.546;2023-11-19T10:18:36;9.80;;;2.92;;
54452;SDS011;40363;52.270;10.546;2023-11-19T10:21:03;9.57;;;3.13;;
54452;SDS011;40363;52.270;10.546;2023-11-19T10:23:41;8.25;;;2.75;;
54452;SDS011;40363;52.270;10.546;2023-11-19T10:26:16;8.60;;;2.05;;
54452;SDS011;40363;52.270;10.546;2023-11-19T10:28:42;7.07;;;2.40;;
54452;SDS011;40363;52.270;10.546;2023-11-19T10:31:13;16.42;;;4.05;;
54452;SDS011;40363;52.270;10.546;2023-11-19T10:33:40;16.15;;;3.75;;
54452;SDS011;40363;52.270;10.546;2023-11-19T10:36:07;15.70;;;3.15;;
54452;SDS011;40363;52.270;10.546;2023-11-19T10:38:35;10.48;;;2.45;;
54452;SDS011;40363;52.270;10.546;2023-11-19T10:41:01;14.50;;;2.78;;
54452;SDS011;40363;52.270;10.546;2023-11-19T10:43:30;8.65;;;2.95;;
54452;SDS011;40363;52.270;10.546;2023-11-19T10:46:09;16.92;;;3.53;;
54452;SDS011;40363;52.270;10.546;2023-11-19T10:48:37;18.10;;;2.95;;
54452;SDS011;40363;52.270;10.546;2023-11-19T10:51:05;14.02;;;2.90;;
54452;SDS011;40363;52.270;10.546;2023-11-19T10:53:33;9.45;;;2.33;;
54452;SDS011;40363;52.270;10.546;2023-11-19T10:56:06;14.80;;;2.38;;
54452;SDS011;40363;52.270;10.546;2023-11-19T10:58:44;14.20;;;2.72;;
54452;SDS011;40363;52.270;10.546;2023-11-19T11:01:13;12.57;;;2.88;;
54452;SDS011;40363;52.270;10.546;2023-11-19T11:03:46;11.00;;;2.65;;
54452;SDS011;40363;52.270;10.546;2023-11-19T11:06:18;13.50;;;2.42;;
54452;SDS011;40363;52.270;10.546;2023-11-19T11:08:47;6.28;;;2.45;;
54452;SDS011;40363;52.270;10.546;2023-11-19T11:11:15;10.93;;;3.08;;
54452;SDS011;40363;52.270;10.546;2023-11-19T11:13:47;9.20;;;2.67;;
54452;SDS011;40363;52.270;10.546;2023-11-19T11:16:14;9.18;;;1.70;;
54452;SDS011;40363;52.270;10.546;2023-11-19T11:18:44;7.38;;;1.75;;
54452;SDS011;40363;52.270;10.546;2023-11-19T11:21:13;12.10;;;2.00;;
54452;SDS011;40363;52.270;10.546;2023-11-19T11:26:45;7.30;;;2.28;;
54452;SDS011;40363;52.270;10.546;2023-11-19T11:29:26;11.15;;;2.25;;
54452;SDS011;40363;52.270;10.546;2023-11-19T11:32:04;6.35;;;1.98;;
54452;SDS011;40363;52.270;10.546;2023-11-19T11:34:47;10.52;;;3.13;;
54452;SDS011;40363;52.270;10.546;2023-11-19T11:37:30;7.20;;;2.20;;
54452;SDS011;40363;52.270;10.546;2023-11-19T11:40:01;13.25;;;2.25;;
54452;SDS011;40363;52.270;10.546;2023-11-19T11:42:31;14.38;;;3.20;;
54452;SDS011;40363;52.270;10.546;2023-11-19T11:45:02;7.65;;;2.35;;
54452;SDS011;40363;52.270;10.546;2023-11-19T11:50:50;9.95;;;2.85;;
54452;SDS011;40363;52.270;10.546;2023-11-19T11:53:19;13.98;;;2.97;;
54452;SDS011;40363;52.270;10.546;2023-11-19T11:55:56;5.53;;;2.00;;
54452;SDS011;40363;52.270;10.546;2023-11-19T11:58:26;13.75;;;3.30;;
54452;SDS011;40363;52.270;10.546;2023-11-19T12:00:59;12.52;;;3.08;;
54452;SDS011;40363;52.270;10.546;2023-11-19T12:03:28;11.73;;;2.30;;
54452;SDS011;40363;52.270;10.546;2023-11-19T12:05:55;11.07;;;2.88;;
54452;SDS011;40363;52.270;10.546;2023-11-19T12:08:24;10.30;;;2.88;;
54452;SDS011;40363;52.270;10.546;2023-11-19T12:10:53;13.50;;;3.25;;
54452;SDS011;40363;52.270;10.546;2023-11-19T12:13:23;9.27;;;2.17;;
54452;SDS011;40363;52.270;10.546;2023-11-19T12:16:10;11.00;;;3.40;;
54452;SDS011;40363;52.270;10.546;2023-11-19T12:18:38;13.15;;;2.70;;
54452;SDS011;40363;52.270;10.546;2023-11-19T12:21:09;17.98;;;5.80;;
54452;SDS011;40363;52.270;10.546;2023-11-19T12:23:43;14.80;;;2.90;;
54452;SDS011;40363;52.270;10.546;2023-11-19T12:29:09;16.80;;;3.80;;
54452;SDS011;40363;52.270;10.546;2023-11-19T12:31:37;10.40;;;1.95;;
54452;SDS011;40363;52.270;10.546;2023-11-19T12:34:07;12.48;;;3.47;;
54452;SDS011;40363;52.270;10.546;2023-11-19T12:36:37;14.07;;;2.53;;
54452;SDS011;40363;52.270;10.546;2023-11-19T12:39:05;18.00;;;2.75;;
54452;SDS011;40363;52.270;10.546;2023-11-19T12:41:32;10.30;;;2.17;;
54452;SDS011;40363;52.270;10.546;2023-11-19T12:44:08;10.82;;;3.25;;
54452;SDS011;40363;52.270;10.546;2023-11-19T12:46:37;8.77;;;2.58;;
54452;SDS011;40363;52.270;10.546;2023-11-19T12:49:04;9.13;;;2.28;;
54452;SDS011;40363;52.270;10.546;2023-11-19T12:51:31;17.15;;;5.07;;
54452;SDS011;40363;52.270;10.546;2023-11-19T12:53:57;8.57;;;2.15;;
54452;SDS011;40363;52.270;10.546;2023-11-19T12:56:24;16.98;;;2.88;;
54452;SDS011;40363;52.270;10.546;2023-11-19T12:58:51;12.38;;;2.95;;
54452;SDS011;40363;52.270;10.546;2023-11-19T13:01:18;13.55;;;2.63;;
54452;SDS011;40363;52.270;10.546;2023-11-19T13:03:47;8.70;;;2.45;;
54452;SDS011;40363;52.270;10.546;2023-11-19T13:06:16;14.85;;;2.90;;
54452;SDS011;40363;52.270;10.546;2023-11-19T13:08:46;19.65;;;2.85;;
54452;SDS011;40363;52.270;10.546;2023-11-19T13:11:15;8.50;;;3.33;;
54452;SDS011;40363;52.270;10.546;2023-11-19T13:13:57;9.60;;;2.75;;
54452;SDS011;40363;52.270;10.546;2023-11-19T13:16:25;15.48;;;3.78;;
54452;SDS011;40363;52.270;10.546;2023-11-19T13:18:54;11.07;;;2.03;;
54452;SDS011;40363;52.270;10.546;2023-11-19T13:21:22;10.23;;;2.80;;
54452;SDS011;40363;52.270;10.546;2023-11-19T13:23:49;11.00;;;3.30;;
54452;SDS011;40363;52.270;10.546;2023-11-19T13:26:15;15.20;;;2.67;;
54452;SDS011;40363;52.270;10.546;2023-11-19T13:28:42;15.20;;;3.03;;
54452;SDS011;40363;52.270;10.546;2023-11-19T13:31:09;25.05;;;3.33;;
54452;SDS011;40363;52.270;10.546;2023-11-19T13:33:36;11.93;;;2.58;;
54452;SDS011;40363;52.270;10.546;2023-11-19T13:36:04;17.13;;;2.78;;
54452;SDS011;40363;52.270;10.546;2023-11-19T13:38:32;8.65;;;2.22;;
54452;SDS011;40363;52.270;10.546;2023-11-19T13:41:00;14.55;;;3.60;;
54452;SDS011;40363;52.270;10.546;2023-11-19T13:43:26;15.15;;;2.65;;
54452;SDS011;40363;52.270;10.546;2023-11-19T13:45:53;14.40;;;3.00;;
54452;SDS011;40363;52.270;10.546;2023-11-19T13:48:20;8.02;;;1.73;;
54452;SDS011;40363;52.270;10.546;2023-11-19T13:50:47;11.80;;;2.05;;
54452;SDS011;40363;52.270;10.546;2023-11-19T13:53:15;8.55;;;1.77;;
54452;SDS011;40363;52.270;10.546;2023-11-19T13:55:41;10.73;;;2.08;;
54452;SDS011;40363;52.270;10.546;2023-11-19T13:58:08;11.05;;;2.35;;
54452;SDS011;40363;52.270;10.546;2023-11-19T14:00:35;14.75;;;2.80;;
54452;SDS011;40363;52.270;10.546;2023-11-19T14:03:02;6.35;;;2.38;;
54452;SDS011;40363;52.270;10.546;2023-11-19T14:05:29;15.77;;;2.88;;
54452;SDS011;40363;52.270;10.546;2023-11-19T14:07:56;9.18;;;2.15;;
54452;SDS011;40363;52.270;10.546;2023-11-19T14:10:24;14.40;;;2.78;;
54452;SDS011;40363;52.270;10.546;2023-11-19T14:12:52;10.90;;;3.22;;
54452;SDS011;40363;52.270;10.546;2023-11-19T14:15:19;10.15;;;3.00;;
54452;SDS011;40363;52.270;10.546;2023-11-19T14:17:45;16.05;;;3.22;;
54452;SDS011;40363;52.270;10.546;2023-11-19T14:20:12;7.35;;;2.65;;
54452;SDS011;40363;52.270;10.546;2023-11-19T14:22:40;10.63;;;2.28;;
54452;SDS011;40363;52.270;10.546;2023-11-19T14:25:08;11.02;;;3.03;;
54452;SDS011;40363;52.270;10.546;2023-11-19T14:27:36;9.15;;;2.75;;
54452;SDS011;40363;52.270;10.546;2023-11-19T14:30:04;13.35;;;2.92;;
54452;SDS011;40363;52.270;10.546;2023-11-19T14:32:31;10.32;;;3.22;;
54452;SDS011;40363;52.270;10.546;2023-11-19T14:34:58;15.20;;;4.25;;
54452;SDS011;40363;52.270;10.546;2023-11-19T14:37:26;7.70;;;2.28;;
54452;SDS011;40363;52.270;10.546;2023-11-19T14:39:53;10.95;;;2.58;;
54452;SDS011;40363;52.270;10.546;2023-11-19T14:42:20;14.45;;;4.22;;
54452;SDS011;40363;52.270;10.546;2023-11-19T14:44:49;9.15;;;2.60;;
54452;SDS011;40363;52.270;10.546;2023-11-19T14:47:15;12.00;;;3.70;;